createdAt,value
2019-04-27T00:01:00.352Z,82.20
2019-04-27T00:03:41.298Z,82.10
2019-04-27T00:06:14.605Z,82.00
2019-04-27T00:09:03.503Z,82.20
2019-04-27T00:11:37.385Z,82.40
2019-04-27T00:14:04.427Z,82.50
2019-04-27T00:16:47.059Z,82.60
2019-04-27T00:19:35.296Z,82.60
2019-04-27T00:22:03.481Z,83.00
2019-04-27T00:24:33.577Z,83.50
2019-04-27T00:27:03.286Z,83.70
2019-04-27T00:29:33.170Z,83.90
2019-04-27T00:32:04.118Z,84.20
2019-04-27T00:34:33.990Z,84.40
2019-04-27T00:37:19.547Z,84.40
2019-04-27T00:39:56.325Z,84.60
2019-04-27T00:42:25.090Z,84.70
2019-04-27T00:44:54.232Z,84.70
2019-04-27T00:47:25.097Z,85.30
2019-04-27T00:49:54.976Z,85.70
2019-04-27T00:52:24.130Z,85.60
2019-04-27T00:54:53.929Z,85.80
2019-04-27T00:57:24.586Z,86.00
2019-04-27T01:00:01.009Z,86.50
2019-04-27T01:02:35.439Z,86.50
2019-04-27T01:05:06.823Z,86.60
2019-04-27T01:07:35.559Z,87.10
2019-04-27T01:10:07.167Z,87.00
2019-04-27T01:12:35.043Z,87.00
2019-04-27T01:15:05.849Z,87.10
2019-04-27T01:17:34.788Z,87.40
2019-04-27T01:20:04.309Z,87.50
2019-04-27T01:22:33.236Z,87.60
2019-04-27T01:25:01.943Z,87.40
2019-04-27T01:27:39.385Z,87.80
2019-04-27T01:30:10.471Z,87.70
2019-04-27T01:32:39.306Z,87.90
2019-04-27T01:35:08.636Z,87.70
2019-04-27T01:37:38.690Z,87.80
2019-04-27T01:40:09.719Z,88.00
2019-04-27T01:42:39.533Z,88.20
2019-04-27T01:45:08.891Z,88.70
2019-04-27T01:47:39.157Z,88.50
2019-04-27T01:50:08.812Z,88.60
2019-04-27T01:52:38.535Z,88.40
2019-04-27T01:55:08.635Z,89.10
2019-04-27T01:57:38.668Z,88.10
2019-04-27T02:00:30.335Z,88.00
2019-04-27T02:03:00.717Z,88.30
2019-04-27T02:05:43.232Z,88.40
2019-04-27T02:08:11.977Z,88.70
2019-04-27T02:10:40.832Z,88.70
2019-04-27T02:13:09.562Z,88.80
2019-04-27T02:15:39.569Z,89.10
2019-04-27T02:18:09.473Z,89.60
2019-04-27T02:20:38.814Z,89.60
2019-04-27T02:23:09.129Z,89.90
2019-04-27T02:25:39.611Z,90.10
2019-04-27T02:28:21.697Z,90.20
2019-04-27T02:30:58.144Z,90.30
2019-04-27T02:33:34.533Z,90.30
2019-04-27T02:36:03.265Z,90.50
2019-04-27T02:38:32.026Z,90.40
2019-04-27T02:41:02.375Z,90.30
2019-04-27T02:43:32.691Z,90.30
2019-04-27T02:46:01.670Z,90.20
2019-04-27T02:48:30.400Z,90.00
2019-04-27T02:51:00.777Z,90.20
2019-04-27T02:53:49.765Z,90.30
2019-04-27T02:56:20.165Z,90.30
2019-04-27T02:58:49.585Z,90.40
2019-04-27T03:01:20.068Z,90.20
2019-04-27T03:03:50.297Z,90.40
2019-04-27T03:06:19.882Z,90.80
2019-04-27T03:08:52.910Z,90.50
2019-04-27T03:11:20.492Z,90.70
2019-04-27T03:13:54.210Z,90.80
2019-04-27T03:16:30.560Z,90.80
2019-04-27T03:19:20.950Z,90.70
2019-04-27T03:21:55.209Z,90.70
2019-04-27T03:24:29.550Z,90.50
2019-04-27T03:27:00.753Z,90.30
2019-04-27T03:29:30.654Z,90.20
2019-04-27T03:32:01.881Z,90.10
2019-04-27T03:34:32.000Z,89.90
2019-04-27T03:37:00.509Z,89.60
2019-04-27T03:39:29.964Z,89.10
2019-04-27T03:42:00.239Z,89.20
2019-04-27T03:44:32.043Z,88.80
2019-04-27T03:46:59.824Z,88.30
2019-04-27T03:49:37.509Z,88.30
2019-04-27T03:52:03.011Z,88.40
2019-04-27T03:54:35.603Z,88.00
2019-04-27T03:57:05.967Z,87.70
2019-04-27T03:59:36.769Z,87.10
2019-04-27T04:02:05.563Z,86.60
2019-04-27T04:04:34.312Z,86.00
2019-04-27T04:07:09.724Z,85.20
2019-04-27T04:09:42.827Z,84.70
2019-04-27T04:12:15.826Z,85.70
2019-04-27T04:14:44.617Z,87.20
2019-04-27T04:17:15.577Z,85.50
2019-04-27T04:19:53.870Z,84.60
2019-04-27T04:22:19.819Z,84.10
2019-04-27T04:24:46.619Z,83.30
2019-04-27T04:27:15.505Z,82.60
2019-04-27T04:29:46.493Z,81.90
2019-04-27T04:32:15.257Z,81.20
2019-04-27T04:34:43.976Z,80.80
2019-04-27T04:37:12.772Z,80.50
2019-04-27T04:39:41.575Z,79.70
2019-04-27T04:42:11.980Z,78.80
2019-04-27T04:44:42.336Z,78.70
2019-04-27T04:47:12.709Z,78.10
2019-04-27T04:49:41.509Z,77.80
2019-04-27T04:52:12.416Z,77.20
2019-04-27T04:54:43.958Z,76.60
2019-04-27T04:57:14.277Z,75.60
2019-04-27T04:59:43.896Z,75.10
2019-04-27T05:02:12.825Z,74.50
2019-04-27T05:04:41.511Z,74.40
2019-04-27T05:07:10.244Z,73.50
2019-04-27T05:09:41.351Z,73.10
2019-04-27T05:12:11.286Z,72.50
2019-04-27T05:14:41.661Z,71.80
2019-04-27T05:17:10.388Z,71.50
2019-04-27T05:19:43.335Z,70.60
2019-04-27T05:22:12.056Z,69.70
2019-04-27T05:24:40.871Z,69.10
2019-04-27T05:27:09.616Z,69.30
2019-04-27T05:29:38.977Z,68.40
2019-04-27T05:32:09.122Z,67.60
2019-04-27T05:34:39.472Z,66.90
2019-04-27T05:37:08.917Z,65.90
2019-04-27T05:39:38.948Z,65.20
2019-04-27T05:42:12.557Z,64.70
2019-04-27T05:44:59.054Z,64.50
2019-04-27T05:47:29.512Z,63.40
2019-04-27T05:49:59.885Z,61.70
2019-04-27T05:52:29.512Z,62.00
2019-04-27T05:55:00.332Z,61.20
2019-04-27T05:57:31.460Z,61.20
2019-04-27T06:00:02.290Z,61.10
2019-04-27T06:02:30.563Z,60.60
2019-04-27T06:05:00.064Z,60.30
2019-04-27T06:07:29.684Z,60.10
2019-04-27T06:09:59.903Z,60.00
2019-04-27T06:12:29.716Z,59.30
2019-04-27T06:14:59.975Z,58.90
2019-04-27T06:17:29.817Z,58.60
2019-04-27T06:19:59.526Z,58.20
2019-04-27T06:22:29.363Z,58.30
2019-04-27T06:25:00.164Z,57.60
2019-04-27T06:27:30.533Z,57.20
2019-04-27T06:30:00.710Z,56.30
2019-04-27T06:32:30.698Z,55.60
2019-04-27T06:34:59.514Z,55.50
2019-04-27T06:37:29.344Z,56.30
2019-04-27T06:39:59.688Z,55.80
2019-04-27T06:42:29.665Z,54.50
2019-04-27T06:44:59.965Z,53.60
2019-04-27T06:47:29.467Z,53.50
2019-04-27T06:49:58.783Z,53.70
2019-04-27T06:52:29.215Z,53.60
2019-04-27T06:54:58.367Z,52.80
2019-04-27T06:57:29.226Z,52.50
2019-04-27T06:59:59.190Z,51.30
2019-04-27T07:02:29.095Z,51.10
2019-04-27T07:04:59.208Z,50.70
2019-04-27T07:07:29.429Z,50.00
2019-04-27T07:09:59.152Z,49.50
2019-04-27T07:12:28.811Z,49.60
2019-04-27T07:14:59.263Z,49.60
2019-04-27T07:17:28.984Z,49.10
2019-04-27T07:19:59.449Z,49.50
2019-04-27T07:22:29.816Z,48.40
2019-04-27T07:24:59.120Z,48.00
2019-04-27T07:27:29.175Z,48.10
2019-04-27T07:30:00.774Z,47.90
2019-04-27T07:32:29.201Z,48.70
2019-04-27T07:34:58.618Z,47.60
2019-04-27T07:37:29.266Z,46.90
2019-04-27T07:39:59.236Z,47.90
2019-04-27T07:42:30.252Z,47.20
2019-04-27T07:45:16.916Z,46.30
2019-04-27T07:47:46.509Z,46.70
2019-04-27T07:50:15.228Z,47.00
2019-04-27T07:52:43.968Z,47.20
2019-04-27T07:55:12.817Z,46.00
2019-04-27T07:57:41.536Z,45.90
2019-04-27T08:00:11.058Z,45.20
2019-04-27T08:02:39.787Z,44.50
2019-04-27T08:05:09.353Z,45.10
2019-04-27T08:07:39.128Z,44.00
2019-04-27T08:10:09.680Z,44.20
2019-04-27T08:12:38.712Z,43.20
2019-04-27T08:15:08.928Z,43.50
2019-04-27T08:17:38.319Z,43.90
2019-04-27T08:20:09.101Z,43.60
2019-04-27T08:22:38.946Z,43.00
2019-04-27T08:25:09.533Z,42.70
2019-04-27T08:27:46.239Z,42.90
2019-04-27T08:30:17.105Z,43.20
2019-04-27T08:32:49.556Z,43.40
2019-04-27T08:35:19.493Z,41.70
2019-04-27T08:37:49.495Z,40.20
2019-04-27T08:40:19.277Z,39.70
2019-04-27T08:42:49.164Z,39.40
2019-04-27T08:45:19.320Z,39.00
2019-04-27T08:47:49.738Z,38.90
2019-04-27T08:50:19.165Z,38.80
2019-04-27T08:52:50.142Z,39.30
2019-04-27T08:55:19.586Z,38.50
2019-04-27T08:57:49.010Z,38.60
2019-04-27T09:00:19.630Z,39.50
2019-04-27T09:02:50.281Z,39.20
2019-04-27T09:05:21.166Z,39.50
2019-04-27T09:07:50.817Z,39.60
2019-04-27T09:10:30.735Z,39.50
2019-04-27T09:13:10.353Z,39.10
2019-04-27T09:15:42.986Z,38.50
2019-04-27T09:18:13.444Z,38.30
2019-04-27T09:20:46.842Z,37.90
2019-04-27T09:23:15.662Z,37.50
2019-04-27T09:25:44.394Z,37.50
2019-04-27T09:28:13.115Z,36.60
2019-04-27T09:30:41.902Z,37.60
2019-04-27T09:33:14.973Z,37.40
2019-04-27T09:35:43.723Z,37.00
2019-04-27T09:38:12.447Z,37.10
2019-04-27T09:40:41.178Z,36.80
2019-04-27T09:43:09.919Z,36.40
2019-04-27T09:45:38.646Z,36.20
2019-04-27T09:48:07.365Z,35.80
2019-04-27T09:50:36.209Z,36.10
2019-04-27T09:53:06.420Z,35.30
2019-04-27T09:55:36.871Z,34.50
2019-04-27T09:58:05.909Z,34.10
2019-04-27T10:00:37.057Z,33.70
2019-04-27T10:03:06.582Z,33.60
2019-04-27T10:05:36.704Z,34.00
2019-04-27T10:08:06.377Z,34.30
2019-04-27T10:10:37.014Z,34.20
2019-04-27T10:13:06.990Z,33.50
2019-04-27T10:15:35.955Z,33.80
2019-04-27T10:18:06.084Z,34.00
2019-04-27T10:20:40.354Z,34.20
2019-04-27T10:23:06.254Z,33.70
2019-04-27T10:25:37.486Z,33.80
2019-04-27T10:28:06.801Z,34.10
2019-04-27T10:30:37.572Z,34.10
2019-04-27T10:33:08.152Z,33.40
2019-04-27T10:35:36.759Z,33.20
2019-04-27T10:38:05.476Z,33.10
2019-04-27T10:40:34.205Z,33.00
2019-04-27T10:43:02.938Z,32.90
2019-04-27T10:45:32.422Z,33.10
2019-04-27T10:48:01.156Z,33.70
2019-04-27T10:50:29.945Z,31.70
2019-04-27T10:52:59.295Z,29.70
2019-04-27T10:55:28.198Z,30.50
2019-04-27T10:57:56.915Z,30.80
2019-04-27T11:00:43.758Z,30.50
2019-04-27T11:03:14.140Z,31.30
2019-04-27T11:05:47.230Z,31.90
2019-04-27T11:08:16.710Z,32.00
2019-04-27T11:10:46.192Z,32.20
2019-04-27T11:13:16.607Z,33.50
2019-04-27T11:15:46.110Z,36.00
2019-04-27T11:18:16.705Z,36.50
2019-04-27T11:20:46.876Z,36.20
2019-04-27T11:23:16.439Z,35.80
2019-04-27T11:25:46.829Z,36.90
2019-04-27T11:28:15.817Z,37.60
2019-04-27T11:30:44.528Z,37.90
2019-04-27T11:33:18.005Z,38.00
2019-04-27T11:35:53.285Z,38.50
2019-04-27T11:38:22.039Z,38.10
2019-04-27T11:40:50.785Z,37.60
2019-04-27T11:43:19.516Z,38.30
2019-04-27T11:45:48.245Z,38.10
2019-04-27T11:48:16.989Z,37.70
2019-04-27T11:50:46.022Z,38.00
2019-04-27T11:53:22.770Z,37.70
2019-04-27T11:55:46.103Z,38.80
2019-04-27T11:58:16.371Z,39.00
2019-04-27T12:00:45.335Z,39.70
2019-04-27T12:03:14.136Z,40.20
2019-04-27T12:05:42.860Z,39.50
2019-04-27T12:08:11.592Z,40.50
2019-04-27T12:10:40.312Z,39.50
2019-04-27T12:13:09.040Z,39.80
2019-04-27T12:15:37.766Z,39.40
2019-04-27T12:18:08.844Z,39.20
2019-04-27T12:20:37.066Z,38.70
2019-04-27T12:23:06.563Z,38.30
2019-04-27T12:25:37.049Z,38.20
2019-04-27T12:28:10.170Z,38.00
2019-04-27T12:30:52.920Z,38.50
2019-04-27T12:33:21.823Z,38.50
2019-04-27T12:35:50.557Z,38.90
2019-04-27T12:38:19.584Z,39.00
2019-04-27T12:40:48.381Z,38.60
2019-04-27T12:43:17.124Z,38.90
2019-04-27T12:45:46.029Z,39.30
2019-04-27T12:48:14.996Z,39.70
2019-04-27T12:50:43.815Z,39.80
2019-04-27T12:53:14.184Z,39.30
2019-04-27T12:55:53.584Z,38.10
2019-04-27T12:58:23.951Z,38.90
2019-04-27T13:00:57.113Z,39.40
2019-04-27T13:03:26.255Z,39.80
2019-04-27T13:05:55.060Z,39.50
2019-04-27T13:08:25.843Z,39.90
2019-04-27T13:10:55.416Z,40.20
2019-04-27T13:13:26.834Z,39.70
2019-04-27T13:15:56.289Z,40.10
2019-04-27T13:18:26.731Z,39.80
2019-04-27T13:20:55.657Z,39.10
2019-04-27T13:23:24.489Z,39.10
2019-04-27T13:25:53.212Z,40.00
2019-04-27T13:28:21.978Z,39.60
2019-04-27T13:30:50.823Z,39.00
2019-04-27T13:33:19.593Z,39.10
2019-04-27T13:35:49.507Z,39.00
2019-04-27T13:38:18.361Z,39.50
2019-04-27T13:40:49.128Z,40.50
2019-04-27T13:43:19.568Z,40.50
2019-04-27T13:45:54.862Z,40.80
2019-04-27T13:48:36.315Z,40.80
2019-04-27T13:51:09.324Z,41.70
2019-04-27T13:53:39.783Z,42.00
2019-04-27T13:56:14.640Z,42.30
2019-04-27T13:58:44.161Z,42.60
2019-04-27T14:01:12.906Z,42.60
2019-04-27T14:03:41.629Z,42.40
2019-04-27T14:06:10.376Z,42.10
2019-04-27T14:08:39.171Z,41.90
2019-04-27T14:11:09.558Z,42.00
2019-04-27T14:13:39.876Z,41.60
2019-04-27T14:16:08.833Z,41.30
2019-04-27T14:18:38.401Z,40.00
2019-04-27T14:21:09.303Z,39.40
2019-04-27T14:23:38.608Z,39.20
2019-04-27T14:26:08.768Z,39.00
2019-04-27T14:28:38.264Z,39.00
2019-04-27T14:31:08.863Z,39.70
2019-04-27T14:33:39.596Z,39.50
2019-04-27T14:36:10.465Z,39.40
2019-04-27T14:38:39.253Z,39.00
2019-04-27T14:41:09.806Z,38.90
2019-04-27T14:43:38.582Z,39.40
2019-04-27T14:46:08.152Z,39.70
2019-04-27T14:48:39.248Z,39.50
2019-04-27T14:51:08.776Z,39.40
2019-04-27T14:53:38.572Z,40.00
2019-04-27T14:56:08.835Z,40.30
2019-04-27T14:58:38.057Z,40.40
2019-04-27T15:01:09.129Z,39.80
2019-04-27T15:03:37.845Z,39.00
2019-04-27T15:06:08.762Z,38.80
2019-04-27T15:08:38.401Z,38.10
2019-04-27T15:11:10.371Z,38.20
2019-04-27T15:13:43.091Z,38.60
2019-04-27T15:16:08.705Z,38.50
2019-04-27T15:18:43.374Z,38.00
2019-04-27T15:21:10.373Z,38.50
2019-04-27T15:23:41.272Z,38.60
2019-04-27T15:26:10.435Z,38.40
2019-04-27T15:28:44.791Z,37.60
2019-04-27T15:31:26.389Z,38.30
2019-04-27T15:33:54.796Z,38.10
2019-04-27T15:36:37.205Z,37.90
2019-04-27T15:39:30.469Z,37.70
2019-04-27T15:42:08.199Z,37.30
2019-04-27T15:44:36.524Z,38.00
2019-04-27T15:47:10.398Z,38.10
2019-04-27T15:49:35.856Z,37.20
2019-04-27T15:52:05.721Z,37.00
2019-04-27T15:54:34.449Z,37.20
2019-04-27T15:57:05.738Z,36.90
2019-04-27T15:59:39.495Z,37.20
2019-04-27T16:02:12.198Z,37.20
2019-04-27T16:04:38.133Z,37.80
2019-04-27T16:07:09.970Z,38.30
2019-04-27T16:09:38.831Z,38.10
2019-04-27T16:12:12.513Z,39.30
2019-04-27T16:14:43.929Z,39.70
2019-04-27T16:17:11.638Z,40.10
2019-04-27T16:19:46.804Z,39.50
2019-04-27T16:22:11.001Z,39.30
2019-04-27T16:24:39.819Z,39.40
2019-04-27T16:27:09.025Z,39.70
2019-04-27T16:29:38.984Z,40.00
2019-04-27T16:32:11.330Z,40.00
2019-04-27T16:34:41.194Z,40.50
2019-04-27T16:37:13.967Z,41.00
2019-04-27T16:39:45.675Z,41.10
2019-04-27T16:42:14.268Z,41.40
2019-04-27T16:44:49.475Z,41.20
2019-04-27T16:47:18.778Z,41.90
2019-04-27T16:49:48.388Z,42.40
2019-04-27T16:52:19.372Z,42.60
2019-04-27T16:54:56.284Z,43.90
2019-04-27T16:57:22.508Z,44.60
2019-04-27T16:59:57.939Z,43.60
2019-04-27T17:02:25.180Z,44.20
2019-04-27T17:04:55.517Z,44.40
2019-04-27T17:07:22.746Z,44.50
2019-04-27T17:09:51.513Z,45.00
2019-04-27T17:12:23.761Z,45.10
2019-04-27T17:15:10.649Z,44.90
2019-04-27T17:17:48.699Z,45.20
2019-04-27T17:20:20.992Z,45.60
2019-04-27T17:22:50.172Z,45.90
2019-04-27T17:25:20.113Z,46.20
2019-04-27T17:27:57.883Z,46.60
2019-04-27T17:30:26.478Z,46.60
2019-04-27T17:33:15.631Z,47.10
2019-04-27T17:35:45.349Z,47.60
2019-04-27T17:38:15.927Z,47.90
2019-04-27T17:40:45.254Z,48.60
2019-04-27T17:43:16.602Z,48.90
2019-04-27T17:45:48.583Z,49.20
2019-04-27T17:48:19.030Z,49.60
2019-04-27T17:50:48.978Z,49.90
2019-04-27T17:53:18.696Z,50.20
2019-04-27T17:55:48.459Z,50.40
2019-04-27T17:58:20.930Z,50.60
2019-04-27T18:00:50.472Z,50.80
2019-04-27T18:03:21.410Z,51.20
2019-04-27T18:05:52.039Z,51.50
2019-04-27T18:08:24.993Z,51.70
2019-04-27T18:10:53.697Z,52.00
2019-04-27T18:13:25.638Z,52.20
2019-04-27T18:15:55.105Z,52.60
2019-04-27T18:18:48.595Z,53.00
2019-04-27T18:21:19.651Z,53.30
2019-04-27T18:24:09.462Z,53.70
2019-04-27T18:26:49.306Z,54.00
2019-04-27T18:29:14.460Z,54.30
2019-04-27T18:31:46.374Z,54.70
2019-04-27T18:34:17.329Z,55.00
2019-04-27T18:36:46.810Z,55.30
2019-04-27T18:39:18.234Z,55.70
2019-04-27T18:41:50.563Z,55.90
2019-04-27T18:44:19.106Z,56.30
2019-04-27T18:46:49.114Z,56.50
2019-04-27T18:49:34.090Z,56.70
2019-04-27T18:52:18.558Z,56.90
2019-04-27T18:54:47.373Z,57.20
2019-04-27T18:57:16.457Z,57.30
2019-04-27T18:59:49.205Z,57.50
2019-04-27T19:02:19.359Z,57.70
2019-04-27T19:04:49.947Z,57.80
2019-04-27T19:07:19.949Z,57.90
2019-04-27T19:09:53.668Z,58.00
2019-04-27T19:12:24.753Z,58.30
2019-04-27T19:14:53.629Z,58.60
2019-04-27T19:17:22.366Z,58.70
2019-04-27T19:19:51.089Z,58.70
2019-04-27T19:22:20.631Z,59.10
2019-04-27T19:24:49.450Z,59.20
2019-04-27T19:27:22.679Z,59.30
2019-04-27T19:29:53.053Z,59.50
2019-04-27T19:32:21.872Z,59.70
2019-04-27T19:34:52.637Z,60.00
2019-04-27T19:37:22.212Z,60.30
2019-04-27T19:39:50.938Z,60.80
2019-04-27T19:42:21.514Z,61.10
2019-04-27T19:44:50.268Z,61.00
2019-04-27T19:47:19.088Z,60.90
2019-04-27T19:49:47.947Z,61.00
2019-04-27T19:52:18.326Z,61.30
2019-04-27T19:54:49.284Z,61.40
2019-04-27T19:57:31.134Z,61.40
2019-04-27T19:59:49.758Z,61.70
2019-04-27T20:02:20.300Z,62.10
2019-04-27T20:04:50.874Z,62.30
2019-04-27T20:07:19.634Z,62.00
2019-04-27T20:09:50.190Z,61.80
2019-04-27T20:12:21.281Z,61.50
2019-04-27T20:14:56.366Z,61.10
2019-04-27T20:17:26.608Z,60.10
2019-04-27T20:19:55.945Z,59.90
2019-04-27T20:22:24.758Z,58.70
2019-04-27T20:24:54.545Z,58.10
2019-04-27T20:27:24.480Z,58.00
2019-04-27T20:29:53.456Z,57.20
2019-04-27T20:32:24.658Z,57.00
2019-04-27T20:34:53.394Z,56.80
2019-04-27T20:37:22.190Z,57.30
2019-04-27T20:39:51.446Z,57.10
2019-04-27T20:42:21.074Z,57.00
2019-04-27T20:44:51.613Z,57.30
2019-04-27T20:47:20.583Z,56.60
2019-04-27T20:49:49.387Z,56.30
2019-04-27T20:52:20.878Z,56.50
2019-04-27T20:54:48.956Z,56.40
2019-04-27T20:57:17.767Z,56.30
2019-04-27T20:59:46.493Z,56.10
2019-04-27T21:02:33.399Z,55.90
2019-04-27T21:05:21.070Z,55.70
2019-04-27T21:07:53.007Z,55.90
2019-04-27T21:10:24.616Z,55.50
2019-04-27T21:12:52.509Z,55.00
2019-04-27T21:15:21.488Z,54.80
2019-04-27T21:17:51.223Z,54.30
2019-04-27T21:20:21.893Z,54.00
2019-04-27T21:22:53.438Z,53.60
2019-04-27T21:25:23.298Z,53.60
2019-04-27T21:27:51.977Z,53.50
2019-04-27T21:30:21.320Z,53.30
2019-04-27T21:32:50.870Z,53.20
2019-04-27T21:35:21.122Z,53.10
2019-04-27T21:37:51.156Z,53.20
2019-04-27T21:40:22.631Z,53.00
2019-04-27T21:42:51.548Z,53.00
2019-04-27T21:45:22.244Z,52.70
2019-04-27T21:47:51.946Z,52.60
2019-04-27T21:50:23.218Z,52.40
2019-04-27T21:53:05.529Z,52.50
2019-04-27T21:55:35.891Z,52.50
2019-04-27T21:58:04.602Z,52.50
2019-04-27T22:00:42.733Z,52.50
2019-04-27T22:03:12.489Z,52.30
2019-04-27T22:05:41.644Z,52.50
2019-04-27T22:08:11.697Z,52.80
2019-04-27T22:10:41.008Z,52.70
2019-04-27T22:13:09.688Z,52.90
2019-04-27T22:15:38.457Z,52.70
2019-04-27T22:18:07.196Z,52.50
2019-04-27T22:20:38.571Z,52.50
2019-04-27T22:23:15.796Z,52.70
2019-04-27T22:25:44.532Z,52.60
2019-04-27T22:28:13.271Z,52.60
2019-04-27T22:30:42.012Z,52.40
2019-04-27T22:33:11.278Z,52.50
2019-04-27T22:35:41.437Z,53.10
2019-04-27T22:38:11.853Z,52.30
2019-04-27T22:40:42.312Z,51.90
2019-04-27T22:43:29.140Z,51.90
2019-04-27T22:45:58.834Z,52.20
2019-04-27T22:48:27.636Z,52.30
2019-04-27T22:50:56.364Z,51.80
2019-04-27T22:53:25.102Z,51.50
2019-04-27T22:56:13.741Z,51.80
2019-04-27T22:58:58.587Z,51.50
2019-04-27T23:01:38.240Z,52.00
2019-04-27T23:04:08.625Z,51.30
2019-04-27T23:06:37.426Z,50.70
2019-04-27T23:09:06.465Z,51.00
2019-04-27T23:11:38.676Z,51.20
2019-04-27T23:14:07.412Z,50.90
2019-04-27T23:16:42.234Z,50.90
2019-04-27T23:19:11.009Z,50.60
2019-04-27T23:21:39.729Z,50.40
2019-04-27T23:24:08.446Z,50.20
2019-04-27T23:26:37.287Z,50.40
2019-04-27T23:29:13.589Z,50.60
2019-04-27T23:31:40.850Z,50.20
2019-04-27T23:34:09.600Z,50.50
2019-04-27T23:36:38.462Z,50.60
2019-04-27T23:39:08.182Z,50.60
2019-04-27T23:41:36.988Z,50.60
2019-04-27T23:44:05.713Z,50.80
2019-04-27T23:46:34.525Z,50.90
2019-04-27T23:49:03.264Z,51.00
2019-04-27T23:51:44.742Z,50.90
2019-04-27T23:54:13.439Z,51.00
2019-04-27T23:56:42.194Z,51.10
2019-04-27T23:59:23.785Z,51.20
